Time;durP1;ratioP1;P1;durP2;ratioP2;P2;SDS_P1;SDS_P2;PMS_P1;PMS_P2;Temp;Humidity;BMP_temperature;BMP_pressure;BME280_temperature;BME280_humidity;BME280_pressure;Samples;Min_cycle;Max_cycle;Signal;HPM_P1;HPM_P2
2022/02/17 00:01:25;;;;;;;4.60;2.70;;;;;;;7.31;74.19;96510.14;434068;1268;97997;-41
2022/02/17 00:11:33;;;;;;;4.60;2.80;;;;;;;7.46;74.01;96497.65;433946;1267;111054;-44
2022/02/17 00:21:40;;;;;;;7.80;4.10;;;;;;;7.56;73.97;96499.35;433740;1267;108851;-42
2022/02/17 00:31:47;;;;;;;5.20;3.30;;;;;;;7.60;74.03;96462.76;434149;1267;97927;-41
2022/02/17 00:41:54;;;;;;;3.20;2.70;;;;;;;7.64;73.92;96425.66;433963;1268;108497;-42
2022/02/17 00:52:03;;;;;;;3.50;2.50;;;;;;;7.72;74.07;96386.92;433915;1268;98191;-44
2022/02/17 01:02:10;;;;;;;5.30;2.80;;;;;;;7.75;74.38;96357.14;433755;1267;111048;-40
2022/02/17 01:12:17;;;;;;;2.30;1.80;;;;;;;7.83;74.29;96317.19;433883;1267;108829;-41
2022/02/17 01:22:24;;;;;;;5.90;3.20;;;;;;;7.93;74.26;96284.89;434066;1267;98079;-43
2022/02/17 01:32:31;;;;;;;4.90;3.00;;;;;;;7.96;74.37;96272.56;434057;1267;108846;-42
2022/02/17 01:42:39;;;;;;;2.80;2.50;;;;;;;7.79;75.25;96222.76;433981;1267;96617;-43
2022/02/17 01:52:46;;;;;;;4.90;3.30;;;;;;;7.56;76.41;96205.70;434117;1267;111252;-42
2022/02/17 02:02:53;;;;;;;3.20;2.80;;;;;;;7.46;77.14;96180.77;433959;1267;108845;-42
2022/02/17 02:23:07;;;;;;;5.80;3.30;;;;;;;7.48;79.15;96111.71;433266;1270;108793;-41
2022/02/17 02:33:14;;;;;;;3.60;3.30;;;;;;;7.54;80.08;96085.38;433288;1269;97897;-42
2022/02/17 02:43:21;;;;;;;3.60;2.40;;;;;;;7.52;80.39;96034.96;433237;1270;111100;-43
2022/02/17 02:53:31;;;;;;;5.50;3.10;;;;;;;7.50;81.11;95998.37;433223;1269;109434;-42
2022/02/17 03:03:38;;;;;;;4.00;2.70;;;;;;;7.53;81.62;95975.63;433175;1269;97948;-40
2022/02/17 03:13:45;;;;;;;3.10;2.30;;;;;;;7.59;82.19;95964.77;433353;1269;108825;-42
2022/02/17 03:23:53;;;;;;;4.10;3.20;;;;;;;7.65;82.50;95970.09;433400;1270;97935;-44
2022/02/17 03:34:00;;;;;;;4.80;3.60;;;;;;;7.76;82.89;95948.73;433237;1269;111132;-42
2022/02/17 03:44:07;;;;;;;1.90;1.70;;;;;;;7.83;83.15;95951.94;433118;1268;108747;-40
2022/02/17 03:54:16;;;;;;;1.70;1.40;;;;;;;7.91;82.94;95937.43;433212;1269;97513;-42
2022/02/17 04:04:23;;;;;;;2.20;1.30;;;;;;;7.94;82.90;95909.63;433254;1270;108999;-42
2022/02/17 04:14:30;;;;;;;2.10;1.20;;;;;;;8.05;82.98;95872.67;433189;1269;97913;-42
2022/02/17 04:24:39;;;;;;;1.80;1.20;;;;;;;8.16;82.95;95837.76;433294;1268;111403;-41
2022/02/17 04:34:47;;;;;;;3.10;1.50;;;;;;;8.27;83.33;95813.88;433311;1269;108854;-41
2022/02/17 04:44:54;;;;;;;1.70;1.00;;;;;;;8.39;83.35;95801.05;433128;1269;98589;-41
2022/02/17 04:55:01;;;;;;;1.50;0.90;;;;;;;8.47;83.20;95760.23;433142;1269;107869;-42
2022/02/17 05:05:09;;;;;;;1.40;1.10;;;;;;;8.50;83.16;95740.90;433166;1269;97434;-40
2022/02/17 05:15:19;;;;;;;4.50;0.90;;;;;;;8.63;83.27;95722.29;433270;1269;111258;-41
2022/02/17 05:25:26;;;;;;;3.00;1.10;;;;;;;8.73;83.10;95710.73;433070;1269;108660;-41
2022/02/17 05:35:33;;;;;;;1.80;1.00;;;;;;;8.79;82.85;95709.17;433109;1269;97903;-41
2022/02/17 05:45:53;;;;;;;2.90;1.40;;;;;;;8.85;83.08;95784.90;433179;1269;109497;-44
2022/02/17 05:56:00;;;;;;;5.00;2.60;;;;;;;8.10;83.34;95849.02;433138;1270;97196;-42
2022/02/17 06:06:08;;;;;;;7.50;2.50;;;;;;;7.27;84.03;95876.77;433194;1269;110970;-41
2022/02/17 06:16:15;;;;;;;10.80;4.50;;;;;;;7.01;84.20;95897.36;433098;1269;109315;-43
2022/02/17 06:26:22;;;;;;;8.20;2.80;;;;;;;6.86;85.03;95901.14;433035;1270;98019;-41
2022/02/17 06:36:29;;;;;;;3.20;0.90;;;;;;;6.45;85.13;95919.35;433143;1269;108918;-42
2022/02/17 06:56:44;;;;;;;2.50;1.20;;;;;;;5.90;85.56;95933.38;433164;1269;111042;-42
2022/02/17 07:06:54;;;;;;;4.40;1.30;;;;;;;5.75;86.18;95909.67;429282;1270;5371642;-41
2022/02/17 07:17:02;;;;;;;2.60;0.80;;;;;;;5.63;86.33;95962.59;433180;1270;111040;-44
2022/02/17 07:37:16;;;;;;;13.90;2.00;;;;;;;5.44;86.17;96006.20;433288;1269;97709;-43
2022/02/17 07:47:25;;;;;;;4.70;2.30;;;;;;;5.48;85.91;95976.50;433658;1270;108611;-41
2022/02/17 07:57:32;;;;;;;2.80;1.60;;;;;;;5.52;85.82;96020.21;432802;1270;97801;-43
2022/02/17 08:07:39;;;;;;;4.60;1.90;;;;;;;5.57;86.21;96022.51;432900;1269;109960;-42
2022/02/17 08:17:47;;;;;;;4.90;1.50;;;;;;;5.74;86.15;95979.11;432752;1269;109175;-41
2022/02/17 08:27:54;;;;;;;2.60;1.00;;;;;;;5.82;86.13;95983.45;432877;1269;97500;-41
2022/02/17 08:38:03;;;;;;;1.20;1.00;;;;;;;6.00;86.05;95956.28;432914;1270;109383;-41
2022/02/17 08:48:11;;;;;;;1.10;0.70;;;;;;;6.19;86.12;95970.42;432947;1270;97910;-41
2022/02/17 08:58:18;;;;;;;5.20;1.30;;;;;;;6.58;86.40;95958.10;432949;1269;111124;-41
2022/02/17 09:08:27;;;;;;;2.50;1.20;;;;;;;6.85;85.85;95968.48;432875;1270;107970;-41
2022/02/17 09:18:33;;;;;;;4.80;1.20;;;;;;;6.80;85.55;95985.80;432997;1269;98002;-40
2022/02/17 09:28:41;;;;;;;3.50;1.70;;;;;;;6.84;84.86;95983.27;432861;1270;107659;-43
2022/02/17 09:39:09;;;;;;;3.30;1.60;;;;;;;6.93;83.72;95969.35;432889;1270;98463;-41
2022/02/17 09:49:21;;;;;;;4.20;1.10;;;;;;;7.28;83.41;95972.34;433003;1269;111342;-41
2022/02/17 10:09:36;;;;;;;6.90;1.20;;;;;;;8.63;80.91;95957.70;433002;1269;98016;-41
2022/02/17 10:30:09;;;;;;;7.40;1.90;;;;;;;9.05;76.11;95970.03;432815;1269;108923;-41
2022/02/17 10:40:21;;;;;;;2.40;1.10;;;;;;;9.13;75.59;95959.36;432632;1269;97507;-40
2022/02/17 10:50:28;;;;;;;9.40;2.00;;;;;;;9.36;75.23;95948.43;433081;1268;107862;-40
2022/02/17 11:00:34;;;;;;;2.10;1.00;;;;;;;9.79;73.45;95948.91;433027;1270;97907;-42
2022/02/17 11:10:42;;;;;;;4.40;1.40;;;;;;;10.14;71.24;95963.70;433057;1270;111074;-44
2022/02/17 11:20:51;;;;;;;6.30;2.30;;;;;;;10.54;68.36;95967.23;433040;1270;108990;-41
2022/02/17 11:30:58;;;;;;;5.30;1.50;;;;;;;10.51;65.49;95962.92;432910;1269;108783;-41
2022/02/17 11:41:08;;;;;;;2.10;0.90;;;;;;;10.46;62.16;95978.80;433174;1269;97910;-43
2022/02/17 11:51:23;;;;;;;2.90;0.90;;;;;;;10.30;58.50;95973.77;433312;1270;111096;-43
2022/02/17 12:01:40;;;;;;;4.00;1.30;;;;;;;10.34;55.46;95999.70;433028;1270;107728;-42
2022/02/17 12:11:47;;;;;;;4.40;1.30;;;;;;;10.02;54.43;96011.98;433050;1271;108776;-42
2022/02/17 12:21:56;;;;;;;3.90;0.90;;;;;;;9.72;53.81;96029.09;433060;1268;97926;-42
2022/02/17 12:32:43;;;;;;;3.70;1.10;;;;;;;9.63;53.47;96027.33;433124;1270;111123;-44
2022/02/17 12:52:56;;;;;;;4.80;1.30;;;;;;;9.31;53.46;96061.42;433220;1270;97510;-42
2022/02/17 13:03:04;;;;;;;6.80;1.70;;;;;;;9.22;53.97;96072.58;433153;1270;111297;-43
2022/02/17 13:13:12;;;;;;;2.80;1.10;;;;;;;9.05;53.92;96082.05;433006;1269;108908;-42
2022/02/17 13:23:18;;;;;;;5.70;1.90;;;;;;;8.89;54.64;96096.41;433076;1269;108953;-41
2022/02/17 13:43:44;;;;;;;4.40;1.60;;;;;;;8.68;55.22;96134.66;432844;1270;96680;-44
2022/02/17 13:53:58;;;;;;;5.10;1.00;;;;;;;8.61;55.47;96141.31;432721;1271;111074;-43
2022/02/17 14:04:06;;;;;;;5.10;1.50;;;;;;;8.56;54.79;96162.44;432578;1269;108961;-43
2022/02/17 14:14:13;;;;;;;5.40;1.30;;;;;;;8.38;55.78;96204.64;432631;1269;108812;-41
2022/02/17 14:34:27;;;;;;;11.60;2.70;;;;;;;7.68;60.27;96260.83;432476;1270;111227;-43
2022/02/17 14:44:33;;;;;;;4.90;1.70;;;;;;;7.16;63.55;96279.73;432585;1271;109656;-41
2022/02/17 14:54:39;;;;;;;15.00;5.40;;;;;;;6.95;65.58;96276.13;432634;1269;98215;-41
2022/02/17 15:14:51;;;;;;;5.60;1.90;;;;;;;6.98;65.88;96303.50;432693;1271;97935;-42
2022/02/17 15:24:58;;;;;;;6.20;2.20;;;;;;;7.00;66.32;96318.27;432763;1270;107802;-40
2022/02/17 15:35:06;;;;;;;7.60;1.80;;;;;;;6.87;67.24;96347.05;432744;1270;97909;-41
2022/02/17 16:05:28;;;;;;;8.90;3.40;;;;;;;6.13;71.66;96448.98;432547;1269;97894;-42
2022/02/17 16:15:36;;;;;;;11.40;3.40;;;;;;;5.79;73.91;96463.66;432605;1269;108925;-42
2022/02/17 16:25:43;;;;;;;8.70;2.60;;;;;;;5.72;75.03;96463.23;432666;1269;96664;-42
2022/02/17 16:35:50;;;;;;;9.00;2.90;;;;;;;5.77;74.42;96493.00;432694;1269;110633;-42
2022/02/17 16:45:57;;;;;;;7.90;4.20;;;;;;;5.75;74.58;96517.90;432584;1270;108927;-40
2022/02/17 16:56:05;;;;;;;8.90;1.80;;;;;;;5.69;74.73;96582.98;432777;1269;97922;-40
2022/02/17 17:06:12;;;;;;;3.40;2.10;;;;;;;5.30;77.09;96648.45;432711;1270;111169;-41
2022/02/17 17:16:20;;;;;;;3.00;1.10;;;;;;;4.43;79.72;96675.41;432651;1269;108787;-40
2022/02/17 17:26:27;;;;;;;1.40;0.70;;;;;;;4.09;80.73;96722.48;432442;1270;98008;-41
2022/02/17 17:36:36;;;;;;;2.60;1.10;;;;;;;3.81;81.83;96741.25;432576;1269;108683;-40
2022/02/17 17:46:46;;;;;;;2.00;1.00;;;;;;;3.70;81.96;96768.59;432657;1270;97020;-42
2022/02/17 17:56:53;;;;;;;2.10;1.20;;;;;;;3.73;82.40;96788.52;432540;1269;111040;-41
2022/02/17 18:07:00;;;;;;;9.70;1.80;;;;;;;3.81;82.92;96811.53;432558;1270;108830;-41
2022/02/17 18:17:10;;;;;;;7.90;1.50;;;;;;;3.93;83.32;96828.25;432631;1270;97942;-42
2022/02/17 18:27:17;;;;;;;4.80;2.10;;;;;;;4.00;83.38;96828.64;432771;1269;108723;-42
2022/02/17 18:37:25;;;;;;;5.80;2.20;;;;;;;4.07;83.59;96849.23;432796;1270;97999;-42
2022/02/17 18:47:32;;;;;;;5.70;1.20;;;;;;;4.14;83.41;96865.76;432943;1269;111764;-40
2022/02/17 18:57:39;;;;;;;3.70;1.50;;;;;;;4.22;83.53;96872.59;433032;1270;108176;-40
2022/02/17 19:07:46;;;;;;;4.10;1.60;;;;;;;4.23;83.08;96874.09;428638;1269;5653699;-41
2022/02/17 19:17:55;;;;;;;14.10;6.00;;;;;;;4.21;82.64;96891.89;433061;1270;108951;-41
2022/02/17 19:28:03;;;;;;;9.30;4.50;;;;;;;4.15;82.32;96918.98;433076;1269;97920;-42
2022/02/17 19:38:10;;;;;;;8.90;5.10;;;;;;;4.19;82.20;96922.14;433171;1269;111138;-40
2022/02/17 19:48:19;;;;;;;4.70;1.70;;;;;;;4.23;82.20;96937.09;433086;1270;108899;-43
2022/02/17 19:58:25;;;;;;;3.40;1.00;;;;;;;4.17;82.20;96973.42;433045;1270;97928;-42
2022/02/17 20:08:33;;;;;;;5.40;1.20;;;;;;;3.94;82.23;96984.90;433083;1269;108850;-41
2022/02/17 20:28:46;;;;;;;2.70;1.20;;;;;;;3.90;81.84;97025.19;433043;1270;111017;-42
2022/02/17 20:38:54;;;;;;;5.70;1.20;;;;;;;3.86;81.25;97037.70;433072;1270;108857;-40
2022/02/17 20:59:26;;;;;;;6.50;2.30;;;;;;;3.86;80.24;97064.11;433205;1270;110986;-41
2022/02/17 21:09:34;;;;;;;5.70;2.50;;;;;;;3.84;79.88;97081.90;433021;1269;108811;-41
2022/02/17 21:19:41;;;;;;;7.50;2.80;;;;;;;3.87;79.52;97099.15;433005;1270;97712;-41
2022/02/17 21:29:48;;;;;;;8.80;2.50;;;;;;;3.82;79.25;97110.17;432509;1269;111137;-43
2022/02/17 21:39:55;;;;;;;10.50;4.10;;;;;;;3.77;78.95;97128.17;432970;1270;107864;-40
2022/02/17 21:50:02;;;;;;;17.50;6.30;;;;;;;3.77;78.82;97139.06;432973;1270;97901;-40
2022/02/17 22:00:14;;;;;;;8.00;2.20;;;;;;;3.84;78.46;97155.19;433225;1269;111227;-44
2022/02/17 22:10:22;;;;;;;8.30;3.70;;;;;;;3.91;77.90;97165.98;433317;1270;108902;-43
2022/02/17 22:20:28;;;;;;;10.30;3.40;;;;;;;4.00;77.23;97194.98;433108;1270;98608;-41
2022/02/17 22:40:45;;;;;;;8.60;2.40;;;;;;;4.23;75.55;97232.35;433371;1270;108139;-43
2022/02/17 22:50:53;;;;;;;12.90;3.30;;;;;;;4.24;75.06;97248.60;433149;1269;97939;-43
2022/02/17 23:01:00;;;;;;;8.30;2.20;;;;;;;4.28;73.74;97257.77;433272;1269;96761;-41
2022/02/17 23:11:08;;;;;;;8.50;1.50;;;;;;;4.29;72.21;97270.50;433275;1270;111340;-41
2022/02/17 23:21:17;;;;;;;6.90;1.60;;;;;;;4.23;70.90;97270.52;433138;1270;108840;-40
2022/02/17 23:31:27;;;;;;;8.10;1.80;;;;;;;4.31;69.82;97295.67;433145;1269;108768;-41
2022/02/17 23:41:35;;;;;;;9.80;2.90;;;;;;;4.40;69.59;97316.59;433204;1268;97944;-41
2022/02/17 23:51:43;;;;;;;11.60;3.80;;;;;;;4.35;69.88;97320.85;433198;1269;110982;-43
